createdAt,value
2018-07-05T05:13:50.606Z,29.20
2018-07-05T05:16:37.866Z,30.30
2018-07-05T05:19:25.905Z,31.20
2018-07-05T05:22:14.540Z,31.40
2018-07-05T05:25:05.175Z,31.40
2018-07-05T05:33:15.444Z,32.60
2018-07-05T05:36:02.747Z,32.90
2018-07-05T05:38:50.404Z,33.40
2018-07-05T05:41:37.692Z,33.70
2018-07-05T05:44:39.866Z,34.10
2018-07-05T05:47:27.215Z,33.90
2018-07-05T05:50:14.784Z,34.10
2018-07-05T05:53:02.141Z,34.50
2018-07-05T05:55:49.587Z,34.50
2018-07-05T05:58:36.725Z,35.00
2018-07-05T06:01:25.056Z,35.10
2018-07-05T06:04:12.280Z,35.60
2018-07-05T06:06:59.442Z,35.70
2018-07-05T06:09:46.568Z,36.30
2018-07-05T06:12:33.797Z,36.60
2018-07-05T06:15:21.186Z,36.30
2018-07-05T06:18:08.385Z,36.40
2018-07-05T06:20:55.772Z,36.90
2018-07-05T06:23:43.088Z,37.40
2018-07-05T06:26:30.336Z,38.30
2018-07-05T06:29:17.584Z,38.90
2018-07-05T06:34:46.029Z,39.10
2018-07-05T06:37:33.425Z,39.80
2018-07-05T06:40:20.806Z,39.90
2018-07-05T06:43:08.553Z,40.00
2018-07-05T06:45:55.993Z,39.80
2018-07-05T06:48:43.512Z,40.60
2018-07-05T06:51:30.816Z,41.00
2018-07-05T06:54:18.160Z,40.80
2018-07-05T06:57:05.569Z,40.90
2018-07-05T06:59:53.010Z,40.60
2018-07-05T07:02:40.522Z,41.00
2018-07-05T07:05:28.597Z,40.90
2018-07-05T07:08:15.904Z,40.90
2018-07-05T07:11:03.198Z,41.50
2018-07-05T07:13:50.466Z,40.90
2018-07-05T07:16:38.074Z,42.30
2018-07-05T07:19:25.397Z,41.40
2018-07-05T07:22:12.772Z,41.00
2018-07-05T07:25:00.160Z,40.80
2018-07-05T07:27:47.625Z,40.50
2018-07-05T07:30:34.802Z,40.80
2018-07-05T07:33:22.074Z,41.30
2018-07-05T07:36:09.364Z,41.60
2018-07-05T07:38:56.729Z,42.40
2018-07-05T07:41:52.011Z,42.30
2018-07-05T07:44:21.518Z,42.20
2018-07-05T07:46:50.303Z,42.90
2018-07-05T07:49:19.039Z,43.10
2018-07-05T07:51:47.760Z,43.20
2018-07-05T07:54:16.483Z,43.10
2018-07-05T07:56:45.247Z,43.40
2018-07-05T07:59:13.962Z,43.50
2018-07-05T08:01:42.633Z,44.00
2018-07-05T08:04:11.413Z,43.60
2018-07-05T08:06:40.195Z,44.30
2018-07-05T08:09:08.938Z,43.80
2018-07-05T08:11:37.643Z,43.50
2018-07-05T08:14:06.881Z,43.10
2018-07-05T08:16:35.591Z,43.90
2018-07-05T08:19:04.273Z,43.60
2018-07-05T08:21:33.828Z,43.80
2018-07-05T08:24:02.577Z,43.60
2018-07-05T08:26:31.227Z,43.50
2018-07-05T08:29:01.075Z,43.40
2018-07-05T08:33:58.626Z,43.00
2018-07-05T08:36:27.345Z,43.10
2018-07-05T08:38:56.036Z,43.10
2018-07-05T08:41:24.661Z,43.40
2018-07-05T08:43:53.409Z,43.40
2018-07-05T08:46:22.145Z,43.30
2018-07-05T08:48:50.784Z,43.20
2018-07-05T08:51:19.490Z,42.60
2018-07-05T08:53:48.128Z,42.50
2018-07-05T08:58:45.580Z,42.90
2018-07-05T09:01:14.353Z,42.40
2018-07-05T09:03:43.042Z,42.70
2018-07-05T09:06:11.974Z,42.50
2018-07-05T09:08:40.696Z,42.40
2018-07-05T09:11:09.326Z,42.20
2018-07-05T09:13:38.043Z,42.20
2018-07-05T09:16:06.736Z,42.20
2018-07-05T09:18:35.437Z,42.50
2018-07-05T09:44:34.502Z,42.40
2018-07-05T09:47:03.560Z,42.40
2018-07-05T09:49:32.326Z,42.30
2018-07-05T09:54:42.016Z,41.50
2018-07-05T09:57:15.837Z,41.70
2018-07-05T09:59:44.545Z,41.70
2018-07-05T10:02:13.284Z,41.40
2018-07-05T10:04:41.996Z,41.30
2018-07-05T10:07:10.807Z,41.30
2018-07-05T10:09:39.450Z,41.40
2018-07-05T10:12:08.080Z,41.50
2018-07-05T10:15:00.583Z,41.40
2018-07-05T10:17:29.206Z,41.20
2018-07-05T10:19:58.429Z,41.00
2018-07-05T10:24:55.949Z,40.80
2018-07-05T10:27:24.572Z,40.70
2018-07-05T10:30:11.751Z,40.90
2018-07-05T10:32:59.060Z,41.00
2018-07-05T10:35:27.859Z,40.20
2018-07-05T10:37:59.141Z,40.30
2018-07-05T10:40:46.760Z,40.10
2018-07-05T10:43:34.162Z,40.10
2018-07-05T10:46:21.413Z,39.70
2018-07-05T10:49:08.774Z,39.60
2018-07-05T18:04:10.577Z,27.50
2018-07-05T18:10:19.685Z,27.50
2018-07-05T18:13:15.785Z,27.40
2018-07-05T18:16:05.670Z,27.10
2018-07-05T18:22:04.860Z,26.90
2018-07-05T19:16:49.320Z,25.50
2018-07-05T19:19:51.380Z,25.40
2018-07-05T19:22:40.386Z,25.30
2018-07-05T19:25:32.471Z,25.30
2018-07-05T20:11:41.991Z,25.00
2018-07-05T21:25:30.174Z,22.60
2018-07-05T21:28:17.564Z,22.60
2018-07-05T21:31:05.095Z,22.50
2018-07-05T21:36:35.969Z,22.40
2018-07-05T21:39:23.329Z,22.30
2018-07-05T21:44:55.127Z,22.30
2018-07-05T21:47:42.380Z,22.20
2018-07-05T21:50:29.711Z,22.10
2018-07-05T21:53:16.939Z,22.00
2018-07-05T21:56:04.349Z,22.10
2018-07-05T21:58:51.667Z,22.00
2018-07-05T22:01:38.888Z,22.00
2018-07-05T22:04:26.292Z,22.00
2018-07-05T22:07:13.642Z,22.00
2018-07-05T22:10:01.049Z,21.90
2018-07-05T22:12:48.411Z,21.80
2018-07-05T22:15:37.531Z,21.70
2018-07-05T22:18:30.030Z,21.50
2018-07-05T22:24:07.881Z,21.20
2018-07-05T22:26:55.260Z,21.20
2018-07-05T22:29:47.699Z,21.20
2018-07-05T22:32:35.331Z,21.20
2018-07-05T22:35:22.622Z,21.10
2018-07-05T22:38:10.082Z,21.00
2018-07-05T22:40:57.345Z,20.90
2018-07-05T22:43:44.791Z,20.80
2018-07-05T22:46:32.274Z,20.80
2018-07-05T22:49:19.535Z,20.70
2018-07-05T22:52:06.982Z,20.70
2018-07-05T22:54:54.408Z,20.70
2018-07-05T22:57:41.752Z,20.60
2018-07-05T23:00:29.152Z,20.50
2018-07-05T23:03:16.369Z,20.50
2018-07-05T23:06:03.942Z,20.50
2018-07-05T23:08:51.371Z,20.50
2018-07-05T23:11:38.679Z,20.40
2018-07-05T23:17:36.753Z,20.30
2018-07-05T23:20:23.986Z,20.30
2018-07-05T23:23:11.281Z,20.30
2018-07-05T23:25:58.720Z,20.30
2018-07-05T23:28:45.965Z,20.20
2018-07-05T23:31:33.259Z,20.20
2018-07-05T23:34:20.697Z,20.20
2018-07-05T23:37:07.864Z,20.30
2018-07-05T23:39:55.288Z,20.30
2018-07-05T23:42:42.861Z,20.30
2018-07-05T23:45:30.177Z,20.30
2018-07-05T23:48:17.333Z,20.30
2018-07-05T23:51:04.635Z,20.30
2018-07-05T23:56:33.405Z,20.20
2018-07-05T23:59:21.047Z,20.20
